Lisle, IL (60532)

4:11 PM CST on March 06, 2015 (GMT -0600)
APRSWXNET Woodridge IL US | Change Station
CLOSE
Current Station
Personal Weather Station
Location: Downers Grove, IL
Elevation: 731 ft
Nearby Weather Stations

Elev 731 ft 41.77 °N, 88.06 °W | Updated 38 minutes ago

Clear
Clear
25 °F
Feels Like 16 °F
N
8
Wind Variable Wind from SSW
Gusts 22.0 mph

Today
High -- | Low -- °F
--% Chance of Precip.
Yesterday
High -- | Low -- °F
Precip. -- in
6:19 AM 5:48 PM
Full, 99% visible
Pressure 30.25 in
Visibility 10.0 miles
Clouds Clear
Windchill 16 °F
Dew Point 16 °F
Humidity 69%
Rainfall in
Snow Depth Not available.
UV 1 out of 12
Pollen .20 out of 12
Air Quality Not available.
Flu Activity Not available.
METAR KDPA 062152Z 20017G23KT 10SM CLR M04/M09 A3020 RMK AO2 PK WND 21028/2114 SLP241 T10391094

More Conditions Fewer Conditions

Pressure 30.25 in
Visibility 10.0 miles
Clouds Clear
Windchill 16 °F
Dew Point 16 °F
Humidity 69%
Rainfall in
Snow Depth Not available.
UV 1 out of 12
Pollen .20 out of 12
Air Quality Not available.
Flu Activity Not available.
METAR KDPA 062152Z 20017G23KT 10SM CLR M04/M09 A3020 RMK AO2 PK WND 21028/2114 SLP241 T10391094

More Conditions Fewer Conditions

10-Day Weather Forecast

Almanac

Astronomy

Mar. 06, 2015 Rise Set
Actual Time
Civil Twilight
Nautical Twilight
Astronomical Twilight
Moon
Length of Visible Light
Length of Day
Tomorrow will be .
, % of the Moon is Illuminated

Today's Extremes

State Highs State Lows

Community

WunderPhotos

Upload Photos

1,803,420 photos uploaded!

WunderBlogs® & News

Nearby

Air Quality

  Air Quality AQ Index Pollutant
Not available.

Snow Depth

Station Depth Elevation

Earthquake Activity

City Distance Mag. Time & Date
Minimum magnitude displayed is 2.5.

Coastal Water Temperatures

Place Temperature

Nearby Weather Stations